Time;durP1;ratioP1;P1;durP2;ratioP2;P2;SDS_P1;SDS_P2;PMS_P1;PMS_P2;Temp;Humidity;BMP_temperature;BMP_pressure;BME280_temperature;BME280_humidity;BME280_pressure;Samples;Min_cycle;Max_cycle;Signal;HPM_P1;HPM_P2
2023/02/21 02:13:53;;;;;;;;;;;;;;;22.02;23.04;97654.03;5075741;28;1061;-80
2023/02/21 02:16:37;;;;;;;;;;;;;;;22.16;22.64;97656.41;5076520;28;906;-80
2023/02/21 02:19:15;;;;;;;;;;;;;;;22.19;22.81;97649.84;5059027;28;1212;-79
2023/02/21 02:21:44;;;;;;;;;;;;;;;22.08;22.72;97655.84;5075474;28;1342;-79
2023/02/21 02:24:19;;;;;;;;;;;;;;;22.08;23.00;97643.72;5075361;28;1109;-79
2023/02/21 02:26:48;;;;;;;;;;;;;;;21.90;22.94;97657.69;5074767;28;854;-80
2023/02/21 02:29:31;;;;;;;;;;;;;;;22.23;22.74;97647.69;5074986;28;1910;-79
2023/02/21 02:32:08;;;;;;;;;;;;;;;22.11;22.97;97651.31;5075300;28;1313;-79
2023/02/21 02:34:46;;;;;;;;;;;;;;;22.03;22.67;97652.81;5074133;28;826;-79
2023/02/21 02:37:28;;;;;;;;;;;;;;;22.08;22.68;97644.50;5058753;28;1238;-79
2023/02/21 02:39:59;;;;;;;;;;;;;;;21.95;22.84;97646.56;5076254;28;798;-79
2023/02/21 02:42:30;;;;;;;;;;;;;;;22.04;22.83;97657.22;5058469;28;1146;-79
2023/02/21 02:44:57;;;;;;;;;;;;;;;22.24;22.57;97645.63;5074686;28;1241;-79
2023/02/21 02:47:23;;;;;;;;;;;;;;;22.30;22.40;97646.63;5058479;28;1219;-79
2023/02/21 02:49:49;;;;;;;;;;;;;;;22.05;23.05;97647.47;5058058;28;1970;-79
2023/02/21 02:52:14;;;;;;;;;;;;;;;21.98;22.89;97647.72;5058636;28;1124;-79
2023/02/21 02:54:41;;;;;;;;;;;;;;;22.17;22.68;97660.81;5074702;28;1184;-80
2023/02/21 02:57:11;;;;;;;;;;;;;;;22.21;22.57;97658.66;5074945;28;1270;-79
2023/02/21 02:59:38;;;;;;;;;;;;;;;22.28;22.63;97666.94;5075154;28;1132;-79
2023/02/21 03:02:04;;;;;;;;;;;;;;;22.23;22.73;97663.91;5042052;28;1228;-80
2023/02/21 03:04:47;;;;;;;;;;;;;;;21.99;22.94;97666.28;5073650;28;1307;-79
2023/02/21 03:07:20;;;;;;;;;;;;;;;21.97;22.84;97657.47;5057331;28;1120;-79
2023/02/21 03:09:48;;;;;;;;;;;;;;;21.74;23.34;97667.88;5040335;28;1913;-79
2023/02/21 03:12:19;;;;;;;;;;;;;;;21.97;22.79;97663.13;5056966;28;1126;-79
2023/02/21 03:14:57;;;;;;;;;;;;;;;22.07;22.96;97659.13;5056746;28;852;-79
2023/02/21 03:17:23;;;;;;;;;;;;;;;22.07;22.76;97627.94;5056865;28;1412;-79
2023/02/21 03:19:49;;;;;;;;;;;;;;;21.99;22.69;97660.63;5056613;28;973;-79
2023/02/21 03:22:16;;;;;;;;;;;;;;;22.03;22.60;97664.13;5057038;28;1264;-79
2023/02/21 03:24:41;;;;;;;;;;;;;;;21.77;23.01;97661.34;5056699;28;1248;-80
2023/02/21 03:27:07;;;;;;;;;;;;;;;22.05;22.91;97647.47;5073687;28;889;-79
2023/02/21 03:29:59;;;;;;;;;;;;;;;22.18;22.72;97662.44;5020423;28;1906;-79
2023/02/21 03:35:02;;;;;;;;;;;;;;;21.96;22.83;97641.69;5019609;28;1221;-79
2023/02/21 03:37:28;;;;;;;;;;;;;;;21.88;22.90;97660.19;5000621;28;1257;-79
2023/02/21 03:39:54;;;;;;;;;;;;;;;21.92;22.90;97650.31;5016914;28;854;-79
2023/02/21 03:42:20;;;;;;;;;;;;;;;21.97;22.90;97668.78;5000736;28;1355;-79
2023/02/21 03:44:45;;;;;;;;;;;;;;;22.16;22.83;97673.41;5016776;28;1255;-79
2023/02/21 03:47:11;;;;;;;;;;;;;;;21.92;22.77;97663.69;5017691;28;1388;-79
2023/02/21 03:49:36;;;;;;;;;;;;;;;22.11;22.75;97671.16;5036709;28;1906;-80
2023/02/21 03:52:02;;;;;;;;;;;;;;;21.87;22.86;97672.78;5020249;28;1066;-79
2023/02/21 03:54:28;;;;;;;;;;;;;;;21.71;23.32;97657.50;4980734;28;981;-80
2023/02/21 03:56:57;;;;;;;;;;;;;;;22.01;23.07;97669.44;4981000;28;1523;-80
2023/02/21 03:59:24;;;;;;;;;;;;;;;21.93;23.07;97670.94;4980794;28;1108;-79
2023/02/21 04:01:51;;;;;;;;;;;;;;;22.06;22.68;97671.69;4981073;28;1163;-79
2023/02/21 04:04:17;;;;;;;;;;;;;;;21.81;23.09;97679.00;4934178;28;1188;-79
2023/02/21 04:06:46;;;;;;;;;;;;;;;22.02;22.73;97666.16;5006346;28;1303;-80
2023/02/21 04:09:11;;;;;;;;;;;;;;;21.94;23.13;97664.03;5056385;28;1909;-80
2023/02/21 04:11:36;;;;;;;;;;;;;;;22.15;22.86;97652.00;5036808;28;1154;-78
2023/02/21 04:14:03;;;;;;;;;;;;;;;22.20;22.68;97642.13;5019826;28;1189;-79
2023/02/21 04:16:29;;;;;;;;;;;;;;;22.43;22.61;97652.25;5056382;28;1145;-79
2023/02/21 04:18:56;;;;;;;;;;;;;;;22.21;22.68;97644.50;5039475;28;1066;-80
2023/02/21 04:21:22;;;;;;;;;;;;;;;21.91;23.10;97648.72;5019682;28;1251;-80
2023/02/21 04:23:51;;;;;;;;;;;;;;;21.91;23.20;97650.75;5035935;28;1281;-80
2023/02/21 04:26:17;;;;;;;;;;;;;;;22.28;22.58;97652.75;5052891;28;1248;-80
2023/02/21 04:28:47;;;;;;;;;;;;;;;22.01;23.22;97649.59;5039718;28;1952;-80
2023/02/21 04:31:14;;;;;;;;;;;;;;;22.23;22.80;97642.00;5038761;28;1393;-80
2023/02/21 04:33:40;;;;;;;;;;;;;;;22.02;22.88;97642.69;5039308;28;1396;-80
2023/02/21 04:36:07;;;;;;;;;;;;;;;21.70;23.44;97644.56;5039783;28;1289;-80
2023/02/21 04:38:39;;;;;;;;;;;;;;;21.97;22.92;97623.47;5039298;28;1243;-80
2023/02/21 04:41:04;;;;;;;;;;;;;;;22.01;23.03;97629.78;5056563;28;886;-80
2023/02/21 04:43:30;;;;;;;;;;;;;;;22.04;22.84;97634.53;5077211;28;962;-80
2023/02/21 04:45:55;;;;;;;;;;;;;;;21.89;22.90;97634.22;5079252;28;1225;-80
2023/02/21 04:48:23;;;;;;;;;;;;;;;21.92;23.11;97626.88;5061446;28;1200;-80
2023/02/21 04:50:48;;;;;;;;;;;;;;;21.97;23.15;97634.78;5059019;28;1902;-80
2023/02/21 04:53:14;;;;;;;;;;;;;;;22.00;23.14;97639.53;5073533;28;967;-80
2023/02/21 04:55:39;;;;;;;;;;;;;;;21.92;23.13;97638.22;5076740;28;941;-80
2023/02/21 04:58:05;;;;;;;;;;;;;;;22.00;22.97;97651.66;5075345;28;901;-80
2023/02/21 05:00:30;;;;;;;;;;;;;;;22.08;22.80;97641.69;5075552;28;952;-80
2023/02/21 05:02:56;;;;;;;;;;;;;;;21.87;23.07;97638.78;5075387;28;981;-80
2023/02/21 05:05:21;;;;;;;;;;;;;;;21.77;23.22;97633.00;5058997;28;735;-80
2023/02/21 05:07:47;;;;;;;;;;;;;;;21.72;23.43;97636.41;5075402;28;1207;-80
2023/02/21 05:10:13;;;;;;;;;;;;;;;21.87;23.39;97638.78;5058512;28;1911;-80
2023/02/21 05:12:38;;;;;;;;;;;;;;;22.15;22.70;97640.66;5058506;28;890;-79
2023/02/21 05:15:04;;;;;;;;;;;;;;;22.07;23.25;97644.94;5058070;28;908;-80
2023/02/21 05:17:29;;;;;;;;;;;;;;;21.88;22.98;97654.53;5058121;28;944;-80
2023/02/21 05:19:55;;;;;;;;;;;;;;;21.94;23.29;97647.03;5075280;28;806;-80
2023/02/21 05:22:20;;;;;;;;;;;;;;;21.68;23.25;97635.72;5041903;28;892;-80
2023/02/21 05:24:47;;;;;;;;;;;;;;;21.93;23.07;97628.47;5075180;28;842;-80
2023/02/21 05:27:14;;;;;;;;;;;;;;;22.06;23.14;97620.69;5042429;28;761;-80
2023/02/21 05:29:41;;;;;;;;;;;;;;;21.77;23.55;97621.69;5053944;28;1910;-79
2023/02/21 05:32:06;;;;;;;;;;;;;;;22.06;23.01;97624.31;5076832;28;860;-79
2023/02/21 05:34:32;;;;;;;;;;;;;;;21.82;23.13;97621.09;5075717;28;886;-79
2023/02/21 05:36:57;;;;;;;;;;;;;;;21.72;23.48;97624.31;5075852;28;751;-79
2023/02/21 05:39:23;;;;;;;;;;;;;;;21.72;23.24;97616.59;5077059;28;711;-79
2023/02/21 05:41:49;;;;;;;;;;;;;;;22.13;22.79;97614.84;5075894;28;891;-80
2023/02/21 05:44:14;;;;;;;;;;;;;;;22.10;22.86;97610.03;5077203;28;756;-80
2023/02/21 05:46:40;;;;;;;;;;;;;;;22.10;22.77;97621.38;5075442;28;853;-80
2023/02/21 05:49:05;;;;;;;;;;;;;;;21.97;22.81;97612.94;5059246;28;1910;-80
2023/02/21 05:51:35;;;;;;;;;;;;;;;21.88;23.22;97614.88;5076152;28;1224;-80
2023/02/21 05:54:00;;;;;;;;;;;;;;;21.82;23.23;97623.94;5076873;28;892;-80
2023/02/21 05:56:25;;;;;;;;;;;;;;;21.78;23.28;97628.13;5076553;28;854;-80
2023/02/21 05:58:51;;;;;;;;;;;;;;;22.15;22.82;97640.66;5058889;28;896;-79
2023/02/21 06:01:16;;;;;;;;;;;;;;;22.38;22.90;97638.66;5076683;28;845;-80
2023/02/21 06:03:42;;;;;;;;;;;;;;;22.04;23.04;97634.53;5057397;28;830;-80
2023/02/21 06:06:08;;;;;;;;;;;;;;;21.61;23.55;97646.50;5073761;28;1536;-80
2023/02/21 06:08:41;;;;;;;;;;;;;;;21.82;23.17;97640.94;5056698;28;1987;-80
2023/02/21 06:11:06;;;;;;;;;;;;;;;22.01;23.35;97649.59;5056363;28;798;-80
2023/02/21 06:13:32;;;;;;;;;;;;;;;21.95;23.41;97655.06;5057619;28;964;-79
2023/02/21 06:15:57;;;;;;;;;;;;;;;22.06;23.19;97643.38;5074290;28;715;-80
2023/02/21 06:18:23;;;;;;;;;;;;;;;21.81;23.21;97650.69;5040876;28;1249;-80
2023/02/21 06:20:48;;;;;;;;;;;;;;;21.80;23.26;97643.41;5057449;28;927;-80
2023/02/21 06:23:13;;;;;;;;;;;;;;;21.67;23.36;97648.31;5057099;28;775;-80
2023/02/21 06:25:39;;;;;;;;;;;;;;;21.99;23.40;97657.78;5057634;28;768;-80
2023/02/21 06:28:04;;;;;;;;;;;;;;;22.00;23.09;97650.88;5057221;28;815;-80
2023/02/21 06:30:30;;;;;;;;;;;;;;;22.10;22.86;97655.38;5073942;28;1902;-80
2023/02/21 06:32:55;;;;;;;;;;;;;;;21.83;23.36;97653.84;5040828;28;864;-80
2023/02/21 06:35:21;;;;;;;;;;;;;;;21.92;23.12;97656.00;5049830;28;863;-80
2023/02/21 06:37:46;;;;;;;;;;;;;;;21.60;23.55;97657.00;5054187;28;853;-80
2023/02/21 06:40:11;;;;;;;;;;;;;;;21.70;23.54;97660.75;5020759;28;1263;-80
2023/02/21 06:42:37;;;;;;;;;;;;;;;21.98;23.25;97659.03;5053672;28;902;-80
2023/02/21 06:45:02;;;;;;;;;;;;;;;22.04;23.13;97645.88;5037050;28;932;-80
2023/02/21 06:47:28;;;;;;;;;;;;;;;22.08;22.94;97661.50;5053755;28;1059;-81
2023/02/21 06:49:53;;;;;;;;;;;;;;;21.92;23.10;97652.38;5037267;28;1913;-80
2023/02/21 06:52:19;;;;;;;;;;;;;;;21.78;23.47;97651.59;5054069;28;799;-80
2023/02/21 06:54:44;;;;;;;;;;;;;;;21.53;23.58;97652.38;5070531;28;950;-80
2023/02/21 06:57:10;;;;;;;;;;;;;;;22.22;23.13;97648.91;5037249;28;906;-81
2023/02/21 06:59:35;;;;;;;;;;;;;;;22.05;23.02;97651.06;5053670;28;941;-80
2023/02/21 07:02:01;;;;;;;;;;;;;;;21.90;23.45;97646.34;5037404;28;1114;-80
2023/02/21 07:04:27;;;;;;;;;;;;;;;21.85;23.42;97645.66;5053569;28;933;-80
2023/02/21 07:06:52;;;;;;;;;;;;;;;21.94;23.50;97642.16;5069625;28;1109;-80
2023/02/21 07:09:18;;;;;;;;;;;;;;;21.88;23.27;97648.84;5074844;28;1972;-80
2023/02/21 07:11:45;;;;;;;;;;;;;;;22.04;23.02;97641.00;5075078;28;1117;-80
2023/02/21 07:14:11;;;;;;;;;;;;;;;22.13;23.04;97651.69;5075248;28;1401;-80
2023/02/21 07:16:36;;;;;;;;;;;;;;;22.34;22.83;97641.63;5041984;28;1114;-81
2023/02/21 07:19:02;;;;;;;;;;;;;;;21.85;23.38;97640.00;5075634;28;782;-79
2023/02/21 07:21:27;;;;;;;;;;;;;;;21.81;23.49;97636.53;5077343;28;806;-79
2023/02/21 07:23:53;;;;;;;;;;;;;;;21.83;23.28;97639.69;5079871;28;878;-79
2023/02/21 07:26:18;;;;;;;;;;;;;;;21.98;23.27;97619.38;5078183;28;911;-79
2023/02/21 07:28:46;;;;;;;;;;;;;;;22.26;23.07;97635.41;5077066;28;1910;-79
2023/02/21 07:31:11;;;;;;;;;;;;;;;22.42;22.75;97627.97;5077556;28;847;-80
2023/02/21 07:33:37;;;;;;;;;;;;;;;21.88;23.30;97615.66;5077061;28;930;-80
2023/02/21 07:36:02;;;;;;;;;;;;;;;22.04;23.17;97640.22;5077287;28;901;-80
2023/02/21 07:38:28;;;;;;;;;;;;;;;21.93;23.15;97629.25;5060606;28;1202;-80
2023/02/21 07:40:54;;;;;;;;;;;;;;;22.23;23.11;97633.50;5060252;28;886;-80
2023/02/21 07:43:19;;;;;;;;;;;;;;;22.04;23.20;97624.00;5060574;28;1555;-80
2023/02/21 07:45:45;;;;;;;;;;;;;;;22.11;23.00;97628.66;5077370;28;966;-80
2023/02/21 07:48:13;;;;;;;;;;;;;;;21.96;23.36;97621.84;5076959;28;1452;-80
2023/02/21 07:50:39;;;;;;;;;;;;;;;21.68;23.64;97630.06;5043992;28;1902;-80
2023/02/21 07:53:05;;;;;;;;;;;;;;;21.69;23.69;97628.81;5043956;28;1442;-80
2023/02/21 07:55:31;;;;;;;;;;;;;;;22.13;23.07;97625.38;5043803;28;998;-79
2023/02/21 07:57:57;;;;;;;;;;;;;;;22.27;23.07;97617.16;5043562;28;783;-80
2023/02/21 08:00:24;;;;;;;;;;;;;;;22.16;23.06;97628.06;5073401;28;926;-80
2023/02/21 08:02:49;;;;;;;;;;;;;;;22.01;23.04;97609.94;5077586;28;853;-80
2023/02/21 08:05:15;;;;;;;;;;;;;;;21.92;23.43;97621.22;5077439;28;830;-81
2023/02/21 08:07:40;;;;;;;;;;;;;;;21.69;23.63;97614.66;5078502;28;1004;-80
2023/02/21 08:10:06;;;;;;;;;;;;;;;22.08;23.04;97618.22;5077487;28;1914;-81
2023/02/21 08:12:31;;;;;;;;;;;;;;;22.06;23.21;97620.69;5060829;28;1104;-80
2023/02/21 08:14:57;;;;;;;;;;;;;;;22.13;23.19;97619.72;5079163;28;850;-80
2023/02/21 08:17:22;;;;;;;;;;;;;;;22.02;23.24;97614.34;5077720;28;823;-80
2023/02/21 08:19:48;;;;;;;;;;;;;;;21.89;23.31;97627.78;5078684;28;858;-81
2023/02/21 08:22:13;;;;;;;;;;;;;;;21.87;23.26;97604.78;5077444;28;1026;-81
2023/02/21 08:24:38;;;;;;;;;;;;;;;22.11;23.01;97605.97;5078533;28;888;-81
2023/02/21 08:27:04;;;;;;;;;;;;;;;22.45;22.67;97595.91;5078394;28;836;-80
2023/02/21 08:29:29;;;;;;;;;;;;;;;22.44;22.68;97589.44;5077544;28;1983;-81
2023/02/21 08:31:55;;;;;;;;;;;;;;;21.98;22.95;97591.06;5078447;28;707;-80
2023/02/21 08:34:20;;;;;;;;;;;;;;;21.90;23.24;97581.19;5077616;28;868;-81
2023/02/21 08:36:46;;;;;;;;;;;;;;;21.79;23.40;97579.53;5060562;28;1304;-81
2023/02/21 08:39:11;;;;;;;;;;;;;;;21.96;23.31;97576.53;5060391;28;999;-80
2023/02/21 08:41:37;;;;;;;;;;;;;;;21.92;23.34;97564.56;5078628;28;1300;-81
2023/02/21 08:44:03;;;;;;;;;;;;;;;22.21;22.98;97564.34;5077105;28;1191;-80
2023/02/21 08:46:28;;;;;;;;;;;;;;;21.92;23.34;97558.91;5107155;28;1427;-80
2023/02/21 08:48:54;;;;;;;;;;;;;;;21.87;23.24;97562.31;5074161;28;1909;-79
2023/02/21 08:51:23;;;;;;;;;;;;;;;21.71;23.97;97561.22;5080161;28;1419;-80
2023/02/21 08:53:49;;;;;;;;;;;;;;;21.79;23.82;97545.53;5075572;28;1592;-79
2023/02/21 08:56:17;;;;;;;;;;;;;;;21.89;23.73;97559.78;5075574;28;922;-80
2023/02/21 08:58:43;;;;;;;;;;;;;;;21.93;23.31;97560.47;5059091;28;826;-80
2023/02/21 09:01:09;;;;;;;;;;;;;;;21.85;23.29;97555.03;5076072;28;980;-80
2023/02/21 09:03:35;;;;;;;;;;;;;;;21.90;23.27;97552.88;5075426;28;754;-80
2023/02/21 09:06:02;;;;;;;;;;;;;;;21.77;23.53;97553.72;5058657;28;1087;-80
2023/02/21 09:08:29;;;;;;;;;;;;;;;22.05;23.23;97539.78;5075642;28;1106;-80
2023/02/21 09:10:59;;;;;;;;;;;;;;;21.91;23.26;97546.75;5058757;28;1910;-80
2023/02/21 09:13:28;;;;;;;;;;;;;;;22.11;23.08;97543.66;5059177;28;1276;-80
2023/02/21 09:15:53;;;;;;;;;;;;;;;21.84;23.27;97542.13;5075117;28;1351;-79
2023/02/21 09:18:19;;;;;;;;;;;;;;;21.90;23.74;97533.06;5058449;28;1221;-80
2023/02/21 09:20:48;;;;;;;;;;;;;;;21.70;23.93;97527.66;5058462;28;1281;-80
2023/02/21 09:23:16;;;;;;;;;;;;;;;22.10;23.19;97522.22;5072664;28;816;-80
2023/02/21 09:25:41;;;;;;;;;;;;;;;22.22;23.23;97532.72;5075401;28;783;-80
2023/02/21 09:28:07;;;;;;;;;;;;;;;22.14;23.00;97525.75;5075420;28;811;-80
2023/02/21 09:30:32;;;;;;;;;;;;;;;22.17;23.16;97524.81;5058145;28;1981;-80
2023/02/21 09:32:58;;;;;;;;;;;;;;;22.24;23.27;97516.06;5075236;28;806;-80
2023/02/21 09:35:23;;;;;;;;;;;;;;;22.06;23.46;97524.38;5075116;28;830;-81
2023/02/21 09:37:49;;;;;;;;;;;;;;;21.88;23.68;97529.91;5074786;28;1026;-80
2023/02/21 09:40:17;;;;;;;;;;;;;;;21.77;23.54;97525.41;5039035;28;1385;-81
2023/02/21 09:42:42;;;;;;;;;;;;;;;21.93;23.42;97526.47;5094873;28;911;-81
2023/02/21 09:45:14;;;;;;;;;;;;;;;22.04;23.34;97510.69;5077772;28;799;-81
2023/02/21 09:47:40;;;;;;;;;;;;;;;22.18;22.98;97509.41;5061526;28;1273;-81
2023/02/21 09:50:07;;;;;;;;;;;;;;;22.38;22.91;97505.44;5078050;28;1977;-81
2023/02/21 09:52:33;;;;;;;;;;;;;;;21.92;23.23;97503.03;5077974;28;1012;-81
2023/02/21 09:54:59;;;;;;;;;;;;;;;22.19;22.83;97498.84;5094758;28;955;-81
2023/02/21 09:57:25;;;;;;;;;;;;;;;21.92;23.36;97490.91;5077809;28;788;-81
2023/02/21 09:59:50;;;;;;;;;;;;;;;22.28;22.88;97485.53;5077807;28;973;-81
2023/02/21 10:02:28;;;;;;;;;;;;;;;22.05;23.29;97483.13;5061178;28;931;-80
2023/02/21 10:05:06;;;;;;;;;;;;;;;22.09;23.04;97478.13;5061448;28;1305;-81
2023/02/21 10:07:31;;;;;;;;;;;;;;;21.94;23.48;97477.06;5077341;28;1046;-81
2023/02/21 10:09:56;;;;;;;;;;;;;;;22.02;23.14;97461.38;5098482;28;1902;-81
2023/02/21 10:12:51;;;;;;;;;;;;;;;21.87;23.42;97472.47;5115202;28;974;-81
2023/02/21 10:15:35;;;;;;;;;;;;;;;21.91;23.39;97466.66;5054201;28;994;-81
2023/02/21 10:18:19;;;;;;;;;;;;;;;22.09;23.04;97447.75;5054323;28;740;-81
2023/02/21 10:20:51;;;;;;;;;;;;;;;22.12;23.20;97440.38;5054139;28;838;-81
2023/02/21 10:23:37;;;;;;;;;;;;;;;22.17;22.95;97434.13;5037732;28;1108;-81
2023/02/21 10:26:13;;;;;;;;;;;;;;;21.72;23.56;97412.72;5054022;28;957;-82
2023/02/21 10:28:38;;;;;;;;;;;;;;;21.74;23.62;97406.59;5037543;28;1001;-81
2023/02/21 10:31:06;;;;;;;;;;;;;;;21.70;23.50;97395.38;5054380;28;1976;-82
2023/02/21 10:33:31;;;;;;;;;;;;;;;21.94;23.17;97381.56;5037700;28;903;-81
2023/02/21 10:35:57;;;;;;;;;;;;;;;22.29;22.61;97378.63;5037498;28;954;-81
2023/02/21 10:38:23;;;;;;;;;;;;;;;22.03;22.79;97361.00;5037576;28;928;-81
2023/02/21 10:40:53;;;;;;;;;;;;;;;21.95;23.03;97356.84;5033999;28;912;-81
2023/02/21 10:43:19;;;;;;;;;;;;;;;21.66;23.28;97345.78;5017633;28;826;-82
2023/02/21 10:45:46;;;;;;;;;;;;;;;21.90;23.11;97331.94;5033870;28;1038;-81
2023/02/21 10:48:12;;;;;;;;;;;;;;;22.33;22.35;97339.63;5017467;28;956;-81
2023/02/21 10:50:37;;;;;;;;;;;;;;;22.49;22.37;97335.75;5019740;28;1906;-81
2023/02/21 10:53:03;;;;;;;;;;;;;;;22.41;22.44;97334.44;5053689;28;783;-81
2023/02/21 10:55:28;;;;;;;;;;;;;;;22.00;22.71;97334.38;5037431;28;1025;-81
2023/02/21 10:57:54;;;;;;;;;;;;;;;22.12;22.73;97341.22;5057788;28;917;-81
2023/02/21 11:00:23;;;;;;;;;;;;;;;22.05;22.94;97330.16;5058021;28;901;-81
2023/02/21 11:02:50;;;;;;;;;;;;;;;22.12;22.36;97338.38;5057659;28;772;-82
2023/02/21 11:05:16;;;;;;;;;;;;;;;22.53;21.85;97337.16;5031785;28;1441;-81
2023/02/21 11:07:58;;;;;;;;;;;;;;;22.42;22.03;97347.34;5041264;28;1235;-81
2023/02/21 11:10:31;;;;;;;;;;;;;;;22.07;22.34;97350.28;5057864;28;1906;-81
2023/02/21 11:13:05;;;;;;;;;;;;;;;22.14;22.33;97337.94;5040863;28;926;-81
2023/02/21 11:15:31;;;;;;;;;;;;;;;22.08;22.41;97334.91;5057508;28;904;-81
2023/02/21 11:18:04;;;;;;;;;;;;;;;21.87;22.64;97355.56;5045329;28;952;-81
2023/02/21 11:20:29;;;;;;;;;;;;;;;22.16;22.05;97364.53;5059308;28;886;-81
2023/02/21 11:22:55;;;;;;;;;;;;;;;22.08;22.19;97366.06;5059058;28;1137;-81
2023/02/21 11:25:23;;;;;;;;;;;;;;;22.25;22.34;97355.31;5107119;28;1280;-81
2023/02/21 11:27:57;;;;;;;;;;;;;;;21.89;22.64;97351.00;5074502;28;1201;-81
2023/02/21 11:30:23;;;;;;;;;;;;;;;21.77;22.84;97361.16;5079450;28;1901;-81
2023/02/21 11:32:49;;;;;;;;;;;;;;;21.66;22.96;97352.28;5058070;28;1341;-81
2023/02/21 11:35:17;;;;;;;;;;;;;;;22.02;22.64;97354.53;5100775;28;1086;-81
2023/02/21 11:37:53;;;;;;;;;;;;;;;21.96;22.37;97355.59;5073564;28;1563;-81
2023/02/21 11:40:28;;;;;;;;;;;;;;;22.22;22.16;97333.56;5103581;28;1626;-81
2023/02/21 11:43:12;;;;;;;;;;;;;;;22.08;22.21;97329.22;5059496;28;877;-81
2023/02/21 11:45:39;;;;;;;;;;;;;;;21.81;22.46;97325.00;5077038;28;1294;-81
2023/02/21 11:48:06;;;;;;;;;;;;;;;21.92;22.62;97320.97;5077489;28;1377;-81
2023/02/21 11:50:40;;;;;;;;;;;;;;;22.10;22.05;97316.19;5076557;28;1913;-81
2023/02/21 11:53:05;;;;;;;;;;;;;;;22.30;21.81;97307.31;5105246;28;1434;-81
2023/02/21 11:55:33;;;;;;;;;;;;;;;22.32;21.79;97296.28;5097571;28;1297;-81
2023/02/21 11:58:17;;;;;;;;;;;;;;;21.97;22.44;97283.53;5100884;28;1660;-81
2023/02/21 12:01:04;;;;;;;;;;;;;;;22.04;21.96;97271.91;5102958;28;1291;-81
2023/02/21 12:03:29;;;;;;;;;;;;;;;21.90;22.43;97283.81;5096473;28;1275;-81
2023/02/21 12:05:57;;;;;;;;;;;;;;;22.26;21.77;97278.31;5107980;28;1299;-81
2023/02/21 12:08:25;;;;;;;;;;;;;;;22.10;21.87;97270.06;5072613;28;1599;-81
2023/02/21 12:11:05;;;;;;;;;;;;;;;22.40;21.66;97281.84;5058835;28;1922;-81
2023/02/21 12:13:52;;;;;;;;;;;;;;;21.95;22.42;97261.31;5059416;28;1572;-80
2023/02/21 12:16:34;;;;;;;;;;;;;;;21.76;22.54;97268.97;5059853;28;1380;-81
2023/02/21 12:19:14;;;;;;;;;;;;;;;21.81;22.45;97264.72;5044062;28;1275;-81
2023/02/21 12:21:40;;;;;;;;;;;;;;;21.90;22.07;97261.16;5076539;28;1248;-81
2023/02/21 12:24:14;;;;;;;;;;;;;;;21.99;21.97;97261.19;5066068;28;913;-81
2023/02/21 12:26:51;;;;;;;;;;;;;;;22.19;21.92;97244.63;5056246;28;929;-81
2023/02/21 12:29:35;;;;;;;;;;;;;;;21.89;22.33;97243.38;5056126;28;1910;-81
2023/02/21 12:32:22;;;;;;;;;;;;;;;21.82;22.22;97238.78;5056522;28;972;-81
2023/02/21 12:35:26;;;;;;;;;;;;;;;21.91;22.01;97240.06;5039970;28;755;-81
2023/02/21 12:38:03;;;;;;;;;;;;;;;22.10;21.75;97253.06;5056350;28;1012;-81
2023/02/21 12:40:40;;;;;;;;;;;;;;;22.17;21.33;97252.00;5039402;28;906;-81
2023/02/21 12:43:09;;;;;;;;;;;;;;;22.00;21.58;97243.72;5078467;28;908;-81
2023/02/21 12:45:44;;;;;;;;;;;;;;;21.85;21.81;97265.38;5078149;28;890;-81
2023/02/21 12:48:15;;;;;;;;;;;;;;;21.95;21.53;97274.69;5078327;28;810;-81
2023/02/21 12:50:41;;;;;;;;;;;;;;;21.89;21.59;97268.06;5078201;28;1898;-81
2023/02/21 12:53:16;;;;;;;;;;;;;;;22.26;21.05;97284.00;5110940;28;839;-81
2023/02/21 12:55:44;;;;;;;;;;;;;;;22.10;21.25;97270.06;5110679;28;714;-81
2023/02/21 12:58:13;;;;;;;;;;;;;;;22.17;21.12;97274.66;5110257;28;865;-81
2023/02/21 13:01:10;;;;;;;;;;;;;;;21.91;21.40;97276.88;5078130;28;1004;-80
2023/02/21 13:03:41;;;;;;;;;;;;;;;21.91;21.61;97279.72;5077729;28;1002;-81
2023/02/21 13:06:19;;;;;;;;;;;;;;;21.73;21.70;97267.03;5093613;28;1043;-81
2023/02/21 13:08:51;;;;;;;;;;;;;;;22.10;21.37;97270.06;5076699;28;1236;-81
2023/02/21 13:11:28;;;;;;;;;;;;;;;22.25;21.01;97282.41;5060781;28;1153;-81
2023/02/21 13:13:54;;;;;;;;;;;;;;;22.45;20.62;97278.41;5096146;28;1200;-81
2023/02/21 13:16:20;;;;;;;;;;;;;;;22.04;21.42;97272.69;5104774;28;1264;-81
2023/02/21 13:18:50;;;;;;;;;;;;;;;22.07;21.06;97277.44;5075689;28;1555;-81
2023/02/21 13:21:20;;;;;;;;;;;;;;;21.84;21.54;97275.13;5076407;28;967;-81
2023/02/21 13:23:48;;;;;;;;;;;;;;;22.28;21.16;97269.38;5056291;28;1497;-81
2023/02/21 13:26:44;;;;;;;;;;;;;;;22.18;20.99;97277.06;5094973;28;1465;-82
2023/02/21 13:29:21;;;;;;;;;;;;;;;22.05;21.40;97273.50;5075903;28;1956;-81
2023/02/21 13:31:46;;;;;;;;;;;;;;;21.98;21.29;97273.78;5076314;28;1417;-81
2023/02/21 13:34:13;;;;;;;;;;;;;;;21.96;21.42;97259.28;5110207;28;761;-81
2023/02/21 13:36:40;;;;;;;;;;;;;;;21.85;21.52;97260.50;5090013;28;1593;-82
2023/02/21 13:39:08;;;;;;;;;;;;;;;22.10;21.20;97261.56;5064934;28;1261;-81
2023/02/21 13:41:57;;;;;;;;;;;;;;;22.32;20.93;97259.44;5077139;28;1000;-81
2023/02/21 13:44:25;;;;;;;;;;;;;;;21.84;21.65;97264.59;5076763;28;1537;-81
2023/02/21 13:46:50;;;;;;;;;;;;;;;21.98;21.27;97257.56;5097249;28;1267;-82
2023/02/21 13:49:34;;;;;;;;;;;;;;;21.85;21.51;97254.81;5057051;28;1972;-82
2023/02/21 13:52:18;;;;;;;;;;;;;;;22.18;21.17;97259.25;5055982;28;1318;-81
2023/02/21 13:55:02;;;;;;;;;;;;;;;22.02;21.35;97260.25;5055889;28;925;-81
2023/02/21 13:57:32;;;;;;;;;;;;;;;21.89;21.54;97263.19;5062143;28;1612;-81
2023/02/21 13:59:57;;;;;;;;;;;;;;;21.78;21.46;97254.34;5076590;28;1216;-81
2023/02/21 14:02:29;;;;;;;;;;;;;;;22.07;21.12;97254.78;5074464;28;1192;-81
2023/02/21 14:04:55;;;;;;;;;;;;;;;22.02;21.42;97257.41;5058447;28;933;-81
2023/02/21 14:07:39;;;;;;;;;;;;;;;22.11;21.29;97260.31;5074179;28;1208;-81
2023/02/21 14:10:04;;;;;;;;;;;;;;;22.09;21.19;97257.94;5057552;28;1922;-81
2023/02/21 14:12:30;;;;;;;;;;;;;;;22.17;21.23;97264.13;5057784;28;933;-81
2023/02/21 14:15:05;;;;;;;;;;;;;;;21.95;21.50;97252.81;5057580;28;1244;-79
2023/02/21 14:17:30;;;;;;;;;;;;;;;21.97;21.39;97243.88;5058266;28;749;-79
2023/02/21 14:19:58;;;;;;;;;;;;;;;21.94;21.29;97258.97;5074323;28;967;-79
2023/02/21 14:22:24;;;;;;;;;;;;;;;22.23;20.89;97261.47;5074158;28;933;-80
2023/02/21 14:24:52;;;;;;;;;;;;;;;22.22;20.88;97269.16;5057578;28;1584;-79
2023/02/21 14:27:17;;;;;;;;;;;;;;;22.27;21.07;97273.44;5057904;28;922;-82
2023/02/21 14:29:57;;;;;;;;;;;;;;;21.89;21.33;97276.56;5073738;28;1910;-80
2023/02/21 14:32:24;;;;;;;;;;;;;;;21.90;21.58;97289.47;5073535;28;876;-81
2023/02/21 14:34:49;;;;;;;;;;;;;;;22.29;20.76;97283.06;5057346;28;1583;-80
2023/02/21 14:37:20;;;;;;;;;;;;;;;22.44;20.83;97293.84;5074161;28;966;-80
2023/02/21 14:39:57;;;;;;;;;;;;;;;22.28;21.06;97298.50;5074739;28;1466;-80
2023/02/21 14:42:41;;;;;;;;;;;;;;;22.02;21.09;97294.25;5109176;28;945;-80
2023/02/21 14:45:14;;;;;;;;;;;;;;;22.02;21.08;97285.75;5076788;28;953;-80
2023/02/21 14:47:51;;;;;;;;;;;;;;;21.85;21.22;97288.81;5108874;28;802;-81
2023/02/21 14:50:37;;;;;;;;;;;;;;;22.09;21.06;97285.47;5109264;28;1909;-80
2023/02/21 14:53:27;;;;;;;;;;;;;;;22.15;20.91;97283.63;5108814;28;791;-80
2023/02/21 14:56:07;;;;;;;;;;;;;;;22.19;20.90;97287.13;5108934;28;751;-80
2023/02/21 14:58:42;;;;;;;;;;;;;;;21.87;21.25;97281.91;5075894;28;836;-80
2023/02/21 15:01:26;;;;;;;;;;;;;;;21.91;21.23;97291.81;5075996;28;968;-81
2023/02/21 15:04:04;;;;;;;;;;;;;;;21.93;21.20;97288.56;5076304;28;927;-81
2023/02/21 15:06:29;;;;;;;;;;;;;;;22.20;20.78;97291.53;5108477;28;1057;-81
2023/02/21 15:08:55;;;;;;;;;;;;;;;22.12;20.91;97301.56;5075804;28;1967;-81
2023/02/21 15:11:25;;;;;;;;;;;;;;;22.24;20.76;97308.41;5075355;28;974;-81
2023/02/21 15:14:14;;;;;;;;;;;;;;;21.91;21.20;97308.03;5108524;28;879;-81
2023/02/21 15:16:42;;;;;;;;;;;;;;;21.71;21.56;97309.22;5094096;28;1064;-81
2023/02/21 15:19:13;;;;;;;;;;;;;;;21.87;21.22;97311.03;5060276;28;1105;-81
2023/02/21 15:21:38;;;;;;;;;;;;;;;22.07;21.07;97311.44;5086736;28;1512;-81
2023/02/21 15:24:14;;;;;;;;;;;;;;;22.16;21.06;97316.38;5061734;28;1529;-81
2023/02/21 15:26:40;;;;;;;;;;;;;;;21.85;21.33;97305.81;5077057;28;1017;-81
2023/02/21 15:29:06;;;;;;;;;;;;;;;21.89;21.24;97317.00;5093291;28;1914;-81